Escribe el Código OACI del Aeropuerto

Buscar por Aeropuerto o Ciudad

Información Meteorológica Actual

SGAS | Silvio Pettirossi International Airport

Asunción, Paraguay

Última Actualización Hace 27 Minutos

Cielo con Nubes Dispersas

30 ºC de Temperatura

Vientos Leves a Moderados del SurEste

Temperatura

30 ºC

Temperatura del Punto de Rocío

17 ºC

Humedad Relativa

45.86 %

Dirección del Viento

SurEste (120º, Variando entre 060º y 150º)

Velocidad del Viento

11 km/h (06 kt)

Ráfagas

No Hay

Visibilidad

Mayor a 10 kilómetros

Presión Reducida a Nivel del Mar

1014 hPa (Hectopascales)

Capas de Nubes

5% a 30% de Cielo Cubierto con Base a 1219 mts (4000 ft) de Altura.

METAR SGAS 071400Z 12006KT 060V150 9999 FEW040 30/17 Q1014

Pronóstico Meteorológico

SGAS | Silvio Pettirossi International Airport

Asunción, Paraguay

Pronóstico válido para las próximas 22 Horas

A partir de este momento se espera:

Cielo Despejado

Vientos Leves a Moderados del SurEste

En 4 horas se espera el comienzo de 3 horas con períodos intermitentes de:

Cielo Mayormente Nublado

Vientos Leves a Moderados del Este

Temperatura Máxima

36 ºC en 5 Horas

Temperatura Mínima

22 ºC en 19 Horas

TAF SGAS 070935Z 0712/0812 15008KT CAVOK TX36/0719Z TN22/0809Z TEMPO 0718/0721 09008KT 9999 BKN033 BECMG 0802/0805 14005KT CAVOK